createdAt,value
2017-11-08T00:01:40.602Z,30.03
2017-11-08T00:04:07.035Z,29.13
2017-11-08T00:06:33.478Z,28.53
2017-11-08T00:08:59.917Z,28.80
2017-11-08T00:11:26.357Z,29.47
2017-11-08T00:13:53.599Z,29.23
2017-11-08T00:16:20.030Z,28.73
2017-11-08T00:18:46.462Z,28.30
2017-11-08T00:21:12.796Z,30.30
2017-11-08T00:23:39.242Z,30.33
2017-11-08T00:26:05.663Z,30.00
2017-11-08T00:28:32.030Z,29.77
2017-11-08T00:30:59.353Z,28.90
2017-11-08T00:33:25.786Z,29.80
2017-11-08T00:35:52.242Z,30.57
2017-11-08T00:38:18.656Z,28.57
2017-11-08T00:40:45.098Z,30.23
2017-11-08T00:43:11.554Z,28.20
2017-11-08T00:45:37.958Z,29.33
2017-11-08T00:48:05.080Z,27.50
2017-11-08T00:50:31.555Z,27.33
2017-11-08T00:52:57.932Z,26.63
2017-11-08T00:55:24.242Z,26.17
2017-11-08T00:57:50.654Z,26.00
2017-11-08T01:00:17.076Z,25.73
2017-11-08T01:02:43.516Z,25.30
2017-11-08T01:05:10.549Z,25.43
2017-11-08T01:07:36.932Z,26.23
2017-11-08T01:10:03.441Z,24.50
2017-11-08T01:12:29.885Z,24.63
2017-11-08T01:14:56.411Z,25.60
2017-11-08T01:17:22.839Z,24.37
2017-11-08T01:19:49.276Z,24.27
2017-11-08T01:22:16.424Z,24.83
2017-11-08T01:24:42.859Z,24.80
2017-11-08T01:27:09.294Z,25.90
2017-11-08T01:29:35.626Z,24.00
2017-11-08T01:32:02.068Z,24.17
2017-11-08T01:34:28.495Z,25.47
2017-11-08T01:36:54.939Z,24.40
2017-11-08T01:39:22.111Z,25.93
2017-11-08T01:41:48.516Z,23.93
2017-11-08T01:44:14.952Z,24.93
2017-11-08T01:46:41.283Z,22.87
2017-11-08T01:49:07.813Z,23.27
2017-11-08T01:51:34.255Z,24.60
2017-11-08T01:54:00.690Z,23.93
2017-11-08T01:56:27.847Z,23.80
2017-11-08T01:58:54.275Z,25.27
2017-11-08T02:01:20.737Z,24.80
2017-11-08T02:03:47.153Z,23.27
2017-11-08T02:06:13.589Z,24.07
2017-11-08T02:08:40.014Z,24.90
2017-11-08T02:11:06.451Z,24.07
2017-11-08T02:13:33.600Z,23.90
2017-11-08T02:16:00.137Z,26.37
2017-11-08T02:18:26.581Z,24.20
2017-11-08T02:20:52.941Z,22.77
2017-11-08T02:23:19.450Z,24.57
2017-11-08T02:25:45.876Z,26.03
2017-11-08T02:28:12.310Z,25.17
2017-11-08T02:30:39.466Z,24.37
2017-11-08T02:33:05.926Z,24.00
2017-11-08T02:35:32.435Z,25.60
2017-11-08T02:37:58.868Z,25.83
2017-11-08T02:40:25.303Z,25.67
2017-11-08T02:42:51.674Z,25.70
2017-11-08T02:45:18.173Z,23.93
2017-11-08T02:47:45.332Z,24.93
2017-11-08T02:50:11.768Z,24.70
2017-11-08T02:52:38.206Z,22.90
2017-11-08T02:55:04.636Z,22.90
2017-11-08T02:57:31.062Z,23.30
2017-11-08T02:59:57.500Z,24.53
2017-11-08T03:02:23.935Z,26.37
2017-11-08T03:04:51.195Z,25.77
2017-11-08T03:07:17.621Z,25.20
2017-11-08T03:09:44.056Z,23.80
2017-11-08T03:12:10.498Z,23.40
2017-11-08T03:14:36.817Z,26.03
2017-11-08T03:17:03.257Z,25.80
2017-11-08T03:19:29.588Z,25.50
2017-11-08T03:21:56.843Z,25.10
2017-11-08T03:24:23.278Z,26.17
2017-11-08T03:26:49.749Z,23.70
2017-11-08T03:29:16.146Z,22.73
2017-11-08T03:31:42.583Z,24.40
2017-11-08T03:34:08.893Z,23.27
2017-11-08T03:36:35.321Z,24.87
2017-11-08T03:39:02.602Z,24.07
2017-11-08T03:41:29.046Z,22.53
2017-11-08T03:43:55.499Z,23.47
2017-11-08T03:46:21.924Z,23.40
2017-11-08T03:48:48.372Z,23.70
2017-11-08T03:51:14.775Z,23.40
2017-11-08T03:53:41.221Z,24.37
2017-11-08T03:56:08.362Z,20.60
2017-11-08T03:58:34.731Z,22.53
2017-11-08T04:01:01.232Z,22.73
2017-11-08T04:03:27.671Z,24.60
2017-11-08T04:05:54.099Z,25.07
2017-11-08T04:08:20.543Z,23.20
2017-11-08T04:10:46.909Z,21.10
2017-11-08T04:13:14.149Z,30.40
2017-11-08T04:15:40.556Z,33.83
2017-11-08T04:18:07.000Z,37.93
2017-11-08T04:20:33.433Z,44.17
2017-11-08T04:22:59.752Z,34.50
2017-11-08T04:25:26.201Z,39.63
2017-11-08T04:27:52.650Z,24.40
2017-11-08T04:30:19.836Z,24.57
2017-11-08T04:32:46.323Z,25.70
2017-11-08T04:35:12.749Z,24.37
2017-11-08T04:37:39.184Z,27.10
2017-11-08T04:40:05.622Z,22.70
2017-11-08T04:42:32.085Z,23.63
2017-11-08T04:44:58.433Z,23.07
2017-11-08T04:47:25.753Z,24.63
2017-11-08T04:49:52.114Z,24.43
2017-11-08T04:52:18.644Z,24.63
2017-11-08T04:54:45.049Z,25.13
2017-11-08T04:57:11.481Z,26.83
2017-11-08T04:59:37.946Z,25.47
2017-11-08T05:02:04.484Z,21.50
2017-11-08T05:04:31.538Z,23.63
2017-11-08T05:06:57.913Z,22.87
2017-11-08T05:09:24.355Z,24.13
2017-11-08T05:11:50.886Z,30.40
2017-11-08T05:14:17.365Z,33.63
2017-11-08T05:16:43.779Z,32.63
2017-11-08T05:19:10.213Z,30.23
2017-11-08T05:21:37.365Z,32.97
2017-11-08T05:24:03.798Z,36.10
2017-11-08T05:26:30.233Z,33.17
2017-11-08T05:28:56.676Z,27.67
2017-11-08T05:31:23.074Z,27.47
2017-11-08T05:33:49.548Z,25.40
2017-11-08T05:36:15.974Z,25.80
2017-11-08T05:38:43.134Z,26.47
2017-11-08T05:41:09.458Z,27.13
2017-11-08T05:43:35.899Z,27.20
2017-11-08T05:46:02.326Z,27.40
2017-11-08T05:48:28.733Z,27.37
2017-11-08T05:50:55.194Z,28.30
2017-11-08T05:53:21.629Z,29.43
2017-11-08T05:55:48.678Z,29.27
2017-11-08T05:58:15.047Z,32.20
2017-11-08T06:00:41.555Z,31.80
2017-11-08T06:03:07.981Z,30.60
2017-11-08T06:05:34.416Z,29.60
2017-11-08T06:08:00.786Z,28.03
2017-11-08T06:10:27.295Z,25.47
2017-11-08T06:12:54.437Z,26.20
2017-11-08T06:15:20.872Z,26.33
2017-11-08T06:17:47.306Z,27.20
2017-11-08T06:20:13.946Z,24.23
2017-11-08T06:22:40.389Z,25.10
2017-11-08T06:25:06.815Z,24.37
2017-11-08T06:27:33.251Z,24.90
2017-11-08T06:29:59.787Z,23.63
2017-11-08T06:32:26.231Z,23.17
2017-11-08T06:34:52.664Z,23.60
2017-11-08T06:37:19.100Z,22.90
2017-11-08T06:39:45.935Z,22.73
2017-11-08T06:42:12.370Z,22.37
2017-11-08T06:47:10.547Z,21.83
2017-11-08T06:49:36.970Z,21.60
2017-11-08T06:52:03.857Z,23.23
2017-11-08T06:54:30.245Z,23.57
2017-11-08T06:56:56.714Z,22.63
2017-11-08T07:01:54.907Z,22.77
2017-11-08T07:04:21.351Z,24.23
2017-11-08T07:06:47.784Z,25.07
2017-11-08T07:09:14.323Z,24.73
2017-11-08T07:11:40.870Z,24.60
2017-11-08T07:14:07.371Z,25.53
2017-11-08T07:16:34.010Z,23.40
2017-11-08T07:19:01.075Z,22.57
2017-11-08T07:21:27.585Z,21.87
2017-11-08T07:23:54.047Z,20.90
2017-11-08T07:26:20.893Z,22.77
2017-11-08T07:28:47.271Z,25.27
2017-11-08T07:31:13.764Z,22.00
2017-11-08T07:33:40.617Z,21.97
2017-11-08T07:36:06.974Z,21.50
2017-11-08T07:38:33.475Z,21.07
2017-11-08T07:46:03.401Z,21.40
2017-11-08T07:48:29.833Z,23.10
2017-11-08T07:50:56.407Z,22.93
2017-11-08T07:53:22.878Z,23.93
2017-11-08T07:55:49.576Z,21.00
2017-11-08T07:58:16.012Z,20.70
2017-11-08T08:00:42.549Z,23.07
2017-11-08T08:03:09.497Z,22.40
2017-11-08T08:05:36.452Z,23.33
2017-11-08T08:08:02.878Z,24.97
2017-11-08T08:10:29.758Z,21.20
2017-11-08T08:13:00.100Z,22.87
2017-11-08T08:15:26.575Z,23.13
2017-11-08T08:17:53.428Z,22.40
2017-11-08T08:20:19.953Z,21.30
2017-11-08T08:22:46.409Z,22.13
2017-11-08T08:25:13.858Z,22.83
2017-11-08T08:27:40.293Z,22.27
2017-11-08T08:30:06.629Z,22.20
2017-11-08T08:32:33.070Z,23.20
2017-11-08T08:34:59.989Z,31.30
2017-11-08T08:37:26.450Z,22.53
2017-11-08T08:39:52.877Z,24.47
2017-11-08T08:42:19.826Z,24.47
2017-11-08T08:44:46.374Z,22.53
2017-11-08T08:47:12.909Z,22.50
2017-11-08T08:49:39.745Z,22.70
2017-11-08T08:52:06.428Z,22.10
2017-11-08T08:54:32.966Z,22.80
2017-11-08T08:56:59.874Z,23.80
2017-11-08T08:59:26.412Z,21.30
2017-11-08T09:01:52.949Z,22.73
2017-11-08T09:04:19.885Z,21.60
2017-11-08T09:06:46.431Z,23.63
2017-11-08T09:09:12.858Z,22.50
2017-11-08T09:11:39.703Z,21.67
2017-11-08T09:14:06.149Z,22.80
2017-11-08T09:16:32.692Z,21.13
2017-11-08T09:18:59.323Z,19.97
2017-11-08T09:21:25.850Z,20.83
2017-11-08T09:23:52.285Z,20.90
2017-11-08T09:26:18.965Z,21.23
2017-11-08T09:28:45.394Z,22.77
2017-11-08T09:31:11.867Z,21.83
2017-11-08T09:33:38.534Z,22.87
2017-11-08T09:36:04.871Z,22.03
2017-11-08T09:38:31.823Z,22.13
2017-11-08T09:40:58.454Z,18.47
2017-11-08T09:43:24.821Z,17.90
2017-11-08T09:45:51.324Z,17.97
2017-11-08T09:48:18.167Z,19.10
2017-11-08T09:50:44.641Z,18.83
2017-11-08T09:53:11.159Z,19.20
2017-11-08T09:55:38.086Z,18.67
2017-11-08T09:58:05.443Z,18.20
2017-11-08T10:00:32.085Z,20.43
2017-11-08T10:02:58.525Z,21.37
2017-11-08T10:05:25.360Z,20.10
2017-11-08T10:07:51.750Z,20.50
2017-11-08T10:10:18.236Z,20.60
2017-11-08T10:12:45.185Z,21.30
2017-11-08T10:15:11.722Z,19.80
2017-11-08T10:17:38.568Z,20.23
2017-11-08T10:20:05.748Z,21.50
2017-11-08T10:22:32.535Z,20.43
2017-11-08T10:24:59.059Z,20.50
2017-11-08T10:27:25.534Z,18.50
2017-11-08T10:29:52.097Z,17.97
2017-11-08T10:32:18.601Z,17.60
2017-11-08T10:34:45.006Z,16.37
2017-11-08T10:37:11.367Z,17.07
2017-11-08T10:39:38.014Z,17.03
2017-11-08T10:42:04.406Z,17.43
2017-11-08T10:44:31.170Z,18.87
2017-11-08T10:46:58.414Z,18.53
2017-11-08T10:49:24.890Z,19.00
2017-11-08T10:51:51.384Z,18.30
2017-11-08T10:54:18.330Z,17.53
2017-11-08T10:56:44.798Z,18.17
2017-11-08T10:59:11.289Z,18.83
2017-11-08T11:01:38.199Z,18.10
2017-11-08T11:04:05.191Z,15.53
2017-11-08T11:06:31.743Z,17.37
2017-11-08T11:08:58.362Z,18.30
2017-11-08T11:11:24.872Z,17.87
2017-11-08T11:13:51.336Z,16.67
2017-11-08T11:16:18.402Z,19.70
2017-11-08T11:18:44.859Z,20.93
2017-11-08T11:21:11.488Z,18.70
2017-11-08T11:23:38.202Z,18.37
2017-11-08T11:26:04.640Z,17.80
2017-11-08T11:28:31.058Z,19.07
2017-11-08T11:30:57.613Z,17.93
2017-11-08T11:33:24.047Z,18.70
2017-11-08T11:35:50.484Z,17.13
2017-11-08T11:38:17.956Z,18.07
2017-11-08T11:40:44.693Z,17.97
2017-11-08T11:43:11.120Z,17.70
2017-11-08T11:45:37.555Z,16.97
2017-11-08T11:48:04.102Z,19.37
2017-11-08T11:50:30.631Z,20.00
2017-11-08T11:52:56.964Z,17.80
2017-11-08T11:55:23.810Z,19.03
2017-11-08T11:57:50.316Z,20.83
2017-11-08T12:00:16.912Z,18.50
2017-11-08T12:02:43.559Z,17.77
2017-11-08T12:05:10.053Z,17.20
2017-11-08T12:07:36.606Z,16.00
2017-11-08T12:10:03.446Z,16.60
2017-11-08T12:12:29.992Z,16.53
2017-11-08T12:14:56.520Z,15.90
2017-11-08T12:17:23.384Z,16.30
2017-11-08T12:19:49.978Z,15.50
2017-11-08T12:22:16.341Z,17.23
2017-11-08T12:24:43.190Z,15.20
2017-11-08T12:27:09.616Z,15.50
2017-11-08T12:29:36.050Z,16.07
2017-11-08T12:32:02.940Z,15.27
2017-11-08T12:34:29.444Z,15.83
2017-11-08T12:36:55.869Z,14.80
2017-11-08T12:39:22.715Z,15.60
2017-11-08T12:41:49.263Z,14.93
2017-11-08T12:44:15.582Z,15.40
2017-11-08T12:46:42.530Z,19.07
2017-11-08T12:49:08.973Z,15.60
2017-11-08T12:51:35.559Z,16.00
2017-11-08T12:54:01.977Z,16.40
2017-11-08T12:56:28.619Z,14.77
2017-11-08T12:58:55.125Z,16.20
2017-11-08T13:01:21.686Z,16.67
2017-11-08T13:03:48.621Z,16.83
2017-11-08T13:06:15.122Z,16.13
2017-11-08T13:08:41.574Z,16.73
2017-11-08T13:11:08.186Z,15.93
2017-11-08T13:13:34.881Z,16.37
2017-11-08T13:16:02.232Z,16.83
2017-11-08T13:18:28.738Z,16.17
2017-11-08T13:20:55.281Z,16.47
2017-11-08T13:23:22.263Z,17.00
2017-11-08T13:25:48.870Z,16.37
2017-11-08T13:28:15.310Z,17.17
2017-11-08T13:30:42.046Z,17.13
2017-11-08T13:33:08.570Z,15.80
2017-11-08T13:35:35.236Z,17.30
2017-11-08T13:38:01.964Z,17.87
2017-11-08T13:40:28.400Z,17.20
2017-11-08T13:42:54.870Z,16.33
2017-11-08T13:45:21.373Z,17.00
2017-11-08T13:47:48.056Z,16.67
2017-11-08T13:50:14.652Z,17.40
2017-11-08T13:52:41.301Z,18.03
2017-11-08T13:55:07.837Z,17.80
2017-11-08T13:57:34.375Z,17.67
2017-11-08T14:00:00.905Z,18.30
2017-11-08T14:02:27.544Z,18.50
2017-11-08T14:04:53.979Z,19.20
2017-11-08T14:07:20.414Z,20.83
2017-11-08T14:09:47.163Z,17.90
2017-11-08T14:12:13.600Z,20.10
2017-11-08T14:14:40.038Z,19.50
2017-11-08T14:17:06.908Z,19.70
2017-11-08T14:19:33.407Z,18.80
2017-11-08T14:22:00.157Z,18.57
2017-11-08T14:24:26.768Z,20.17
2017-11-08T14:26:53.229Z,19.67
2017-11-08T14:29:19.659Z,21.53
2017-11-08T14:31:46.405Z,20.60
2017-11-08T14:34:12.837Z,20.53
2017-11-08T14:36:41.937Z,20.60
2017-11-08T14:39:08.784Z,20.17
2017-11-08T14:41:35.316Z,20.50
2017-11-08T14:44:02.157Z,21.73
2017-11-08T14:46:28.910Z,21.30
2017-11-08T14:48:55.359Z,21.87
2017-11-08T14:51:21.870Z,22.97
2017-11-08T14:53:48.616Z,23.33
2017-11-08T14:56:15.297Z,23.57
2017-11-08T14:58:41.763Z,24.33
2017-11-08T15:01:08.339Z,22.73
2017-11-08T15:03:34.707Z,23.20
2017-11-08T15:06:01.165Z,22.10
2017-11-08T15:08:27.635Z,23.20
2017-11-08T15:10:54.155Z,24.00
2017-11-08T15:13:20.606Z,25.20
2017-11-08T15:15:47.041Z,24.53
2017-11-08T15:18:13.783Z,23.83
2017-11-08T15:20:40.339Z,25.67
2017-11-08T15:23:06.838Z,24.60
2017-11-08T15:25:33.599Z,22.47
2017-11-08T15:28:00.136Z,23.73
2017-11-08T15:30:26.663Z,23.20
2017-11-08T15:32:53.621Z,25.50
2017-11-08T15:35:20.064Z,24.67
2017-11-08T15:37:46.493Z,25.00
2017-11-08T15:40:13.439Z,24.63
2017-11-08T15:42:39.943Z,24.90
2017-11-08T15:45:06.411Z,26.50
2017-11-08T15:47:33.050Z,27.40
2017-11-08T15:49:59.586Z,27.10
2017-11-08T15:52:26.020Z,29.90
2017-11-08T15:54:52.455Z,30.30
2017-11-08T15:57:18.893Z,31.67
2017-11-08T15:59:45.350Z,32.73
2017-11-08T16:02:11.785Z,31.53
2017-11-08T16:04:38.243Z,31.43
2017-11-08T16:07:04.835Z,32.80
2017-11-08T16:09:31.277Z,32.23
2017-11-08T16:11:57.600Z,30.53
2017-11-08T16:14:24.006Z,30.93
2017-11-08T16:16:51.373Z,31.47
2017-11-08T16:19:18.416Z,32.60
2017-11-08T16:21:44.836Z,30.67
2017-11-08T16:24:11.401Z,34.10
2017-11-08T16:26:37.852Z,34.00
2017-11-08T16:29:04.286Z,36.63
2017-11-08T16:31:30.719Z,36.17
2017-11-08T16:33:57.153Z,36.13
2017-11-08T16:36:23.597Z,40.03
2017-11-08T16:38:49.955Z,39.07
2017-11-08T16:41:16.424Z,40.97
2017-11-08T16:43:42.860Z,45.30
2017-11-08T16:46:09.320Z,42.57
2017-11-08T16:48:36.169Z,41.93
2017-11-08T16:51:02.606Z,35.27
2017-11-08T16:53:29.243Z,37.00
2017-11-08T16:55:55.678Z,37.73
2017-11-08T16:58:22.113Z,38.60
2017-11-08T17:00:48.547Z,41.93
2017-11-08T17:03:14.982Z,42.23
2017-11-08T17:05:42.568Z,42.70
2017-11-08T17:08:08.978Z,40.70
2017-11-08T17:10:35.413Z,41.57
2017-11-08T17:13:01.783Z,37.73
2017-11-08T17:15:28.282Z,35.97
2017-11-08T17:17:54.646Z,34.67
2017-11-08T17:20:21.152Z,34.77
2017-11-08T17:22:48.322Z,34.47
2017-11-08T17:25:14.746Z,35.13
2017-11-08T17:27:41.171Z,33.73
2017-11-08T17:30:07.579Z,38.97
2017-11-08T17:32:34.047Z,40.47
2017-11-08T17:35:00.476Z,37.47
2017-11-08T17:37:26.847Z,41.93
2017-11-08T17:39:54.061Z,47.60
2017-11-08T17:42:20.522Z,41.17
2017-11-08T17:44:46.904Z,40.70
2017-11-08T17:47:13.300Z,42.33
2017-11-08T17:49:39.633Z,42.40
2017-11-08T17:52:06.142Z,39.93
2017-11-08T17:54:32.566Z,35.93
2017-11-08T17:56:59.651Z,34.73
2017-11-08T17:59:26.029Z,35.30
2017-11-08T18:01:52.489Z,32.27
2017-11-08T18:04:18.876Z,39.97
2017-11-08T18:06:45.397Z,41.00
2017-11-08T18:09:11.791Z,40.37
2017-11-08T18:11:38.233Z,39.73
2017-11-08T18:14:05.478Z,42.20
2017-11-08T18:16:31.809Z,40.43
2017-11-08T18:18:58.245Z,40.90
2017-11-08T18:21:24.680Z,43.37
2017-11-08T18:23:51.114Z,39.13
2017-11-08T18:26:17.548Z,37.97
2017-11-08T18:28:43.983Z,40.03
2017-11-08T18:31:11.245Z,41.13
2017-11-08T18:33:37.674Z,40.07
2017-11-08T18:36:04.115Z,43.63
2017-11-08T18:38:30.540Z,48.07
2017-11-08T18:40:56.975Z,45.30
2017-11-08T18:43:23.437Z,40.00
2017-11-08T18:45:49.768Z,40.77
2017-11-08T18:48:17.106Z,37.00
2017-11-08T18:50:43.526Z,34.50
2017-11-08T18:53:09.976Z,27.23
2017-11-08T18:55:36.403Z,28.73
2017-11-08T18:58:02.839Z,28.70
2017-11-08T19:00:29.281Z,27.87
2017-11-08T19:02:55.706Z,26.87
2017-11-08T19:05:22.755Z,27.43
2017-11-08T19:07:49.092Z,30.50
2017-11-08T19:10:15.522Z,29.20
2017-11-08T19:12:41.965Z,29.87
2017-11-08T19:15:08.401Z,32.90
2017-11-08T19:17:34.835Z,34.10
2017-11-08T19:20:01.213Z,33.23
2017-11-08T19:22:28.422Z,36.40
2017-11-08T19:24:54.777Z,30.03
2017-11-08T19:27:21.288Z,31.13
2017-11-08T19:29:47.725Z,29.10
2017-11-08T19:32:14.261Z,29.27
2017-11-08T19:34:40.687Z,29.37
2017-11-08T19:37:07.122Z,27.47
2017-11-08T19:39:34.366Z,24.80
2017-11-08T19:42:00.711Z,26.27
2017-11-08T19:44:27.173Z,24.63
2017-11-08T19:46:53.589Z,26.43
2017-11-08T19:49:20.015Z,26.77
2017-11-08T19:51:46.391Z,25.00
2017-11-08T19:54:12.785Z,27.70
2017-11-08T19:56:40.042Z,24.80
2017-11-08T19:59:06.468Z,25.00
2017-11-08T20:01:32.844Z,24.53
2017-11-08T20:03:59.236Z,24.03
2017-11-08T20:06:25.669Z,24.50
2017-11-08T20:08:52.107Z,23.23
2017-11-08T20:11:18.539Z,23.23
2017-11-08T20:13:45.731Z,23.17
2017-11-08T20:16:12.149Z,22.03
2017-11-08T20:18:38.560Z,20.47
2017-11-08T20:21:04.995Z,19.97
2017-11-08T20:23:31.429Z,20.70
2017-11-08T20:25:57.863Z,21.90
2017-11-08T20:28:24.298Z,21.50
2017-11-08T20:30:51.561Z,22.10
2017-11-08T20:33:17.981Z,21.97
2017-11-08T20:35:44.427Z,24.30
2017-11-08T20:38:10.823Z,24.73
2017-11-08T20:40:37.291Z,25.30
2017-11-08T20:43:03.735Z,27.13
2017-11-08T20:45:30.161Z,24.20
2017-11-08T20:47:57.516Z,28.00
2017-11-08T20:50:23.952Z,26.80
2017-11-08T20:52:50.398Z,26.30
2017-11-08T20:55:16.721Z,25.53
2017-11-08T20:57:43.157Z,23.10
2017-11-08T21:00:09.484Z,23.20
2017-11-08T21:02:35.957Z,24.43
2017-11-08T21:05:03.173Z,23.40
2017-11-08T21:07:29.491Z,24.43
2017-11-08T21:09:55.838Z,26.33
2017-11-08T21:12:22.215Z,26.67
2017-11-08T21:14:48.708Z,26.90
2017-11-08T21:17:15.154Z,25.80
2017-11-08T21:19:41.471Z,29.53
2017-11-08T21:22:08.843Z,29.03
2017-11-08T21:24:35.265Z,26.43
2017-11-08T21:27:01.702Z,29.47
2017-11-08T21:29:28.162Z,29.93
2017-11-08T21:31:54.640Z,27.73
2017-11-08T21:34:21.106Z,28.57
2017-11-08T21:36:47.675Z,25.40
2017-11-08T21:39:14.695Z,25.27
2017-11-08T21:41:41.138Z,24.17
2017-11-08T21:44:07.562Z,22.53
2017-11-08T21:46:33.997Z,22.23
2017-11-08T21:49:00.388Z,21.40
2017-11-08T21:51:26.867Z,21.50
2017-11-08T21:53:53.304Z,20.63
2017-11-08T21:56:20.558Z,21.10
2017-11-08T21:58:47.000Z,21.40
2017-11-08T22:01:13.424Z,21.80
2017-11-08T22:03:39.860Z,22.80
2017-11-08T22:06:06.303Z,22.37
2017-11-08T22:08:32.729Z,21.70
2017-11-08T22:10:59.098Z,23.10
2017-11-08T22:13:26.315Z,24.47
2017-11-08T22:15:52.752Z,22.50
2017-11-08T22:18:19.184Z,23.30
2017-11-08T22:20:45.646Z,25.03
2017-11-08T22:23:12.030Z,24.53
2017-11-08T22:25:38.486Z,24.50
2017-11-08T22:28:04.892Z,26.87
2017-11-08T22:30:32.018Z,26.40
2017-11-08T22:32:58.517Z,28.33
2017-11-08T22:35:24.951Z,27.13
2017-11-08T22:37:51.377Z,27.23
2017-11-08T22:40:17.813Z,27.13
2017-11-08T22:42:44.255Z,28.13
2017-11-08T22:45:10.695Z,27.80
2017-11-08T22:47:37.833Z,26.30
2017-11-08T22:50:04.268Z,24.10
2017-11-08T22:52:30.701Z,23.27
2017-11-08T22:54:57.145Z,23.47
2017-11-08T22:57:23.579Z,22.23
2017-11-08T22:59:50.007Z,23.97
2017-11-08T23:02:16.409Z,22.77
2017-11-08T23:04:43.544Z,24.73
2017-11-08T23:07:10.019Z,23.30
2017-11-08T23:09:36.436Z,23.57
2017-11-08T23:12:02.835Z,24.13
2017-11-08T23:14:29.229Z,23.60
2017-11-08T23:16:55.597Z,24.10
2017-11-08T23:19:21.995Z,22.50
2017-11-08T23:21:49.148Z,23.20
2017-11-08T23:24:15.481Z,23.20
2017-11-08T23:26:41.815Z,25.17
2017-11-08T23:29:08.247Z,25.33
2017-11-08T23:31:34.579Z,24.73
2017-11-08T23:34:01.023Z,23.60
2017-11-08T23:36:27.448Z,23.57
2017-11-08T23:38:54.702Z,23.70
2017-11-08T23:41:21.156Z,23.10
2017-11-08T23:43:47.479Z,23.00
2017-11-08T23:46:13.911Z,23.90
2017-11-08T23:48:40.338Z,23.60
2017-11-08T23:51:06.773Z,22.43
2017-11-08T23:53:33.217Z,24.07
2017-11-08T23:56:00.463Z,23.83
2017-11-08T23:58:26.831Z,23.40
